Latest Weather Observations for Toowoomba

IDQ60801

Issued at 10:02 am EST Saturday 3 December 2016 (issued every 30 minutes, with the page automatically refreshed every 10 minutes)

About weather observations | Map of weather stations | Latest weather observations for QLD | Other Formats
Station Details ID: 041529 Name: TOOWOOMBA AIRPORT Lat: -27.54 Lon: 151.91 Height: 640.9 m
Data from the previous 72 hours. | See also: Recent months at Toowoomba
Date/Time
EST
Temp
°C
App
Temp
°C
Dew
Point
°C
Rel
Hum
%
Delta-T
°C
Wind Press
QNH
hPa
Press
MSL
hPa
Rain since
9am
mm
Dir  Spd
km/h
Gust
km/h
Spd
kts
Gust
kts
03/10:00am 28.3 29.1 19.8 60 5.7 ENE 15 22 8 12 1018.3 1014.9 0.0
03/09:30am 27.5 27.7 19.3 61 5.4 ENE 17 20 9 11 1018.8 1015.4 0.0
03/09:00am 26.5 26.7 19.4 65 4.7 E 17 22 9 12 1018.9 1015.5 0.0
03/08:30am 25.3 25.2 19.9 72 3.6 ENE 20 26 11 14 1018.6 1015.2 0.0
03/08:00am 24.3 24.0 20.4 79 2.6 E 22 26 12 14 1018.6 1015.2 0.0
03/07:30am 23.2 23.0 20.5 85 1.8 ENE 22 30 12 16 1018.3 1014.9 0.0
03/07:00am 21.8 21.4 20.1 90 1.1 E 22 28 12 15 1018.1 1014.7 0.0
03/06:31am 20.9 21.2 20.7 99 0.1 ENE 20 28 11 15 1017.9 1014.5 0.0
03/06:30am 20.8 21.0 20.6 99 0.1 ENE 20 28 11 15 1017.9 1014.5 0.0
03/06:25am 20.7 20.5 20.5 99 0.1 ENE 22 28 12 15 1017.9 1014.5 0.0
03/06:00am 20.4 20.1 20.4 100 0.0 ENE 22 28 12 15 1017.6 1014.2 0.0
03/05:30am 20.2 19.8 20.2 100 0.0 ENE 22 26 12 14 1017.3 1013.9 0.0
03/05:00am 20.1 20.1 20.1 100 0.0 E 20 28 11 15 1016.9 1013.4 0.0
03/04:56am 20.1 20.0 19.9 99 0.1 E 20 26 11 14 1016.6 1013.2 0.0
03/04:50am 20.1 19.7 20.1 100 0.0 E 22 26 12 14 1016.6 1013.2 0.0
03/04:38am 20.1 20.2 19.9 99 0.1 E 19 24 10 13 1016.4 1013.0 0.0
03/04:30am 20.0 20.4 19.8 99 0.1 ENE 17 22 9 12 1016.4 1013.0 0.0
03/04:00am 20.0 19.8 19.8 99 0.1 ENE 20 28 11 15 1016.0 1012.6 0.0
03/03:30am 20.0 18.7 19.8 99 0.1 ENE 26 33 14 18 1015.7 1012.3 0.0
03/03:03am 20.0 17.9 19.8 99 0.1 ENE 30 35 16 19 1015.4 1011.9 0.0
03/03:00am 20.0 17.9 19.8 99 0.1 ENE 30 37 16 20 1015.3 1011.8 0.0
03/02:30am 20.2 18.2 20.0 99 0.1 ENE 30 35 16 19 1015.1 1011.7 0.0
03/02:10am 20.2 18.2 20.0 99 0.1 ENE 30 35 16 19 1015.3 1011.8 0.0
03/02:00am 20.3 18.7 20.1 99 0.1 ENE 28 32 15 17 1015.3 1011.8 0.0
03/01:30am 20.3 18.7 20.1 99 0.1 ENE 28 33 15 18 1015.6 1012.1 0.0
03/01:26am 20.4 18.9 20.2 99 0.1 ENE 28 33 15 18 1015.6 1012.1 0.0
03/01:00am 20.9 20.1 20.1 95 0.5 ENE 24 30 13 16 1015.8 1012.4 0.0
03/12:30am 20.9 20.3 19.7 93 0.8 ENE 22 32 12 17 1016.0 1012.6 0.0
03/12:00am 20.8 20.3 20.0 95 0.5 E 22 28 12 15 1016.2 1012.8 0.0
 
Date/Time
EST
Temp
°C
App
Temp
°C
Dew
Point
°C
Rel
Hum
%
Delta-T
°C
Wind Press
QNH
hPa
Press
MSL
hPa
Rain since
9am
mm
Dir  Spd
km/h
Gust
km/h
Spd
kts
Gust
kts
02/11:30pm 21.1 20.2 19.9 93 0.8 E 24 28 13 15 1016.4 1013.0 0.0
02/11:00pm 21.7 21.4 19.6 88 1.4 E 20 24 11 13 1016.7 1013.3 0.0
02/10:30pm 22.3 21.7 19.7 85 1.7 E 22 32 12 17 1017.0 1013.5 0.0
02/10:00pm 23.5 21.9 19.2 77 2.8 E 26 32 14 17 1016.9 1013.4 0.0
02/09:30pm 24.3 23.7 18.9 72 3.5 E 20 24 11 13 1017.0 1013.5 0.0
02/09:00pm 25.0 23.6 18.7 68 4.1 E 24 28 13 15 1016.5 1013.1 0.0
02/08:30pm 26.0 25.0 18.9 65 4.7 E 22 28 12 15 1016.2 1012.8 0.0
02/08:00pm 27.0 26.4 18.8 60 5.4 E 20 26 11 14 1015.9 1012.5 0.0
02/07:30pm 27.9 26.8 18.6 57 6.1 ESE 22 28 12 15 1015.4 1011.9 0.0
02/07:00pm 29.1 28.8 17.3 49 7.6 E 15 24 8 13 1015.0 1011.6 0.0
02/06:30pm 32.4 28.9 3.4 16 15.3 S 11 17 6 9 1014.5 1011.1 0.0
02/06:00pm 33.7 29.1 3.5 15 16.1 SW 17 24 9 13 1014.0 1010.5 0.0
02/05:30pm 34.6 29.9 3.2 14 16.8 SSW 17 26 9 14 1013.7 1010.2 0.0
02/05:00pm 34.2 29.6 3.9 15 16.3 SW 17 24 9 13 1013.2 1009.8 0.0
02/04:30pm 35.6 31.2 5.0 15 16.9 WSW 17 30 9 16 1012.9 1009.5 0.0
02/04:00pm 34.5 30.1 5.0 16 16.2 SW 17 24 9 13 1012.9 1009.5 0.0
02/03:30pm 35.6 31.1 5.9 16 16.6 SW 19 28 10 15 1012.9 1009.5 0.0
02/03:00pm 35.0 31.7 4.5 15 16.7 SSW 11 28 6 15 1013.0 1009.6 0.0
02/02:30pm 35.1 29.7 4.6 15 16.7 SW 22 33 12 18 1013.3 1009.9 0.0
02/02:00pm 35.3 29.4 3.8 14 17.0 SW 24 39 13 21 1013.4 1010.0 0.0
02/01:30pm 34.8 31.1 6.2 17 16.0 SW 15 28 8 15 1013.8 1010.3 0.0
02/01:00pm 34.4 31.1 8.2 20 15.1 W 15 26 8 14 1014.0 1010.5 0.0
02/12:30pm 32.8 30.2 7.6 21 14.3 W 11 20 6 11 1014.3 1010.9 0.0
02/12:00pm 32.4 30.1 10.4 26 13.0 NW 13 22 7 12 1014.6 1011.2 0.0
02/11:30am 32.3 31.0 12.5 30 12.1 WSW 11 17 6 9 1015.0 1011.6 0.0
02/11:00am 30.3 29.7 13.6 36 10.3 NNW 9 17 5 9 1015.3 1011.8 0.0
02/10:30am 29.6 28.4 12.9 35 10.1 W 11 19 6 10 1015.5 1012.0 0.0
02/10:00am 27.8 27.1 15.5 47 7.7 NNW 13 19 7 10 1015.7 1012.3 0.0
02/09:30am 27.0 26.6 16.3 52 6.8 NNW 13 19 7 10 1015.8 1012.4 0.0
02/09:00am 26.1 24.6 15.2 51 6.8 NNW 17 22 9 12 1015.8 1012.4 0.0
02/08:30am 24.9 23.0 15.8 57 5.7 NW 20 28 11 15 1015.8 1012.4 0.0
02/08:00am 24.1 22.9 16.1 61 5.0 NW 17 22 9 12 1015.8 1012.4 0.0
02/07:30am 22.2 21.7 16.0 68 3.8 NNW 13 22 7 12 1015.8 1012.4 0.0
02/07:00am 21.0 21.6 16.8 77 2.6 ENE 9 11 5 6 1015.9 1012.5 0.0
02/06:30am 19.2 19.0 16.8 86 1.5 E 13 17 7 9 1015.5 1012.0 0.0
02/06:00am 18.1 17.8 16.4 90 1.0 E 13 15 7 8 1015.4 1011.9 0.0
02/05:30am 17.1 17.2 16.5 96 0.4 E 11 13 6 7 1014.9 1011.5 0.0
02/05:00am 16.4 16.2 15.8 96 0.4 ENE 11 13 6 7 1014.4 1011.0 0.0
02/04:30am 16.5 16.4 15.9 96 0.4 E 11 15 6 8 1014.3 1010.9 0.0
02/04:00am 16.8 16.3 16.0 95 0.5 ENE 13 17 7 9 1014.0 1010.5 0.0
02/03:30am 17.1 16.6 16.0 93 0.7 ENE 13 19 7 10 1013.6 1010.1 0.0
02/03:00am 17.3 16.1 16.2 93 0.7 ENE 17 24 9 13 1013.3 1009.9 0.0
02/02:30am 17.3 16.3 16.7 96 0.4 ENE 17 22 9 12 1013.3 1009.9 0.0
02/02:00am 17.6 16.1 16.8 95 0.5 ENE 20 30 11 16 1013.4 1010.0 0.0
02/01:30am 17.5 16.0 16.7 95 0.5 ENE 20 24 11 13 1013.6 1010.1 0.0
02/01:00am 17.8 16.4 17.0 95 0.5 ENE 20 24 11 13 1013.6 1010.1 0.0
02/12:30am 17.9 16.5 16.9 94 0.6 ENE 20 24 11 13 1013.7 1010.2 0.0
02/12:00am 18.2 17.0 17.4 95 0.5 ENE 20 26 11 14 1014.0 1010.5 0.0
 
Date/Time
EST
Temp
°C
App
Temp
°C
Dew
Point
°C
Rel
Hum
%
Delta-T
°C
Wind Press
QNH
hPa
Press
MSL
hPa
Rain since
9am
mm
Dir  Spd
km/h
Gust
km/h
Spd
kts
Gust
kts
01/11:30pm 18.4 16.6 17.9 97 0.3 E 24 32 13 17 1014.1 1010.6 0.0
01/11:00pm 18.6 16.5 18.1 97 0.3 E 26 33 14 18 1014.3 1010.9 0.0
01/10:53pm 18.7 17.0 18.2 97 0.3 E 24 32 13 17 1014.2 1010.7 0.0
01/10:35pm 18.8 16.6 18.6 99 0.1 E 28 33 15 18 1014.2 1010.7 0.0
01/10:34pm 18.9 16.7 18.7 99 0.1 E 28 33 15 18 1014.3 1010.9 0.0
01/10:30pm 18.8 16.5 18.5 98 0.2 E 28 33 15 18 1014.3 1010.9 0.0
01/10:00pm 19.0 16.4 18.7 98 0.2 E 30 37 16 20 1014.3 1010.9 0.0
01/09:31pm 19.2 17.0 18.7 97 0.3 E 28 37 15 20 1014.4 1011.0 0.0
01/09:30pm 19.3 17.1 18.8 97 0.3 E 28 37 15 20 1014.4 1011.0 0.0
01/09:00pm 19.6 16.7 18.8 95 0.5 E 32 41 17 22 1014.2 1010.7 0.0
01/08:30pm 19.7 15.9 18.2 91 1.0 E 35 44 19 24 1013.8 1010.3 0.0
01/08:00pm 20.3 16.6 17.5 84 1.8 E 33 46 18 25 1013.3 1009.9 0.0
01/07:30pm 21.5 16.8 14.4 64 4.3 E 32 46 17 25 1012.8 1009.3 0.0
01/07:00pm 22.3 18.8 15.4 65 4.2 ESE 28 35 15 19 1012.4 1008.9 0.0
01/06:30pm 23.2 19.1 15.0 60 5.0 ESE 30 37 16 20 1011.8 1008.4 0.0
01/06:00pm 25.9 23.7 13.4 46 7.5 SE 17 30 9 16 1011.2 1007.7 0.0
01/05:30pm 30.4 26.3 6.3 22 13.2 WNW 17 22 9 12 1010.7 1007.2 0.0
01/05:00pm 30.3 24.0 5.6 21 13.4 NW 28 44 15 24 1010.3 1006.8 0.0
01/04:35pm 30.2 22.7 6.1 22 13.2 WNW 35 56 19 30 1009.8 1006.3 0.0
01/04:30pm 30.4 22.1 7.6 24 12.8 W 41 61 22 33 1009.9 1006.4 0.0
01/04:20pm 32.1 25.7 7.0 21 14.0 W 30 65 16 35 1009.6 1006.1 0.0
01/04:00pm 32.5 26.2 7.4 21 14.2 WNW 30 46 16 25 1009.1 1005.6 0.0
01/03:55pm 31.5 25.4 6.5 21 13.8 W 28 46 15 25 1009.2 1005.7 0.0
01/03:30pm 32.6 26.8 9.4 24 13.5 NW 30 46 16 25 1009.2 1005.7 0.0
01/03:27pm 32.6 27.0 8.8 23 13.7 NW 28 46 15 25 1009.1 1005.6 0.0
01/03:00pm 32.1 27.2 8.4 23 13.6 WNW 24 43 13 23 1009.8 1006.3 0.0
01/02:44pm 32.5 27.4 9.3 24 13.5 WNW 26 54 14 29 1009.9 1006.4 0.0
01/02:30pm 32.7 27.6 10.7 26 13.1 NW 28 41 15 22 1010.4 1006.9 0.0
01/02:00pm 31.4 27.7 12.7 32 11.4 NW 24 35 13 19 1011.1 1007.6 0.0
01/01:30pm 31.3 27.6 12.6 31 11.4 NW 24 37 13 20 1011.7 1008.3 0.0
01/01:00pm 30.8 28.2 14.8 37 10.0 NW 22 37 12 20 1012.3 1008.8 0.0
01/12:30pm 29.4 26.1 12.8 36 10.1 NW 22 37 12 20 1012.7 1009.2 0.0
01/12:00pm 29.6 26.1 13.4 37 9.9 NW 24 35 13 19 1013.0 1009.6 0.0
01/11:30am 28.7 26.2 14.1 40 9.0 N 20 30 11 16 1013.4 1010.0 0.0
01/11:00am 28.0 25.4 13.1 39 9.0 NNW 19 30 10 16 1014.0 1010.5 0.0
01/10:30am 27.6 25.4 14.3 44 8.2 N 19 30 10 16 1014.2 1010.7 0.0
01/10:00am 26.1 23.6 13.6 46 7.6 N 19 28 10 15 1014.6 1011.2 0.0
01/09:30am 25.0 22.3 13.5 48 6.9 N 20 30 11 16 1015.0 1012.0 0.0
01/09:00am 24.2 21.5 13.4 51 6.5 NNW 20 28 11 15 1015.1 1012.1 0.0
01/08:30am 22.5 19.2 14.1 59 5.1 N 24 30 13 16 1015.5 1012.5 0.0
01/08:00am 21.5 18.5 13.7 61 4.6 NNW 22 28 12 15 1016.0 1013.0 0.0
01/07:30am 20.0 18.2 14.4 70 3.4 N 17 22 9 12 1016.1 1013.1 0.0
01/07:00am 18.5 17.5 15.6 83 1.8 NE 15 20 8 11 1015.1 1012.1 0.0
01/06:30am 16.9 16.0 15.9 94 0.6 ENE 15 20 8 11 1015.1 1012.1 0.0
01/06:00am 15.5 14.0 15.2 98 0.2 ENE 17 22 9 12 1014.8 1011.8 0.0
01/05:30am 15.2 13.9 14.9 98 0.2 ENE 15 20 8 11 1014.4 1011.4 0.0
01/05:00am 15.3 13.1 15.0 98 0.2 ENE 20 26 11 14 1014.3 1011.3 0.0
01/04:30am 15.5 13.7 14.5 94 0.6 ENE 17 24 9 13 1014.0 1011.0 0.0
01/04:00am 15.7 12.5 14.2 91 0.9 ENE 24 32 13 17 1013.4 1010.4 0.0
01/03:30am 15.5 12.6 15.2 98 0.2 ENE 24 32 13 17 1013.2 1010.2 0.0
01/03:00am 15.6 12.8 15.3 98 0.2 E 24 32 13 17 1013.2 1010.2 0.0
01/02:30am 15.7 12.8 15.2 97 0.3 ENE 24 28 13 15 1013.2 1010.2 0.0
01/02:00am 16.0 13.3 15.7 98 0.2 ENE 24 32 13 17 1013.3 1010.3 0.0
01/01:30am 15.9 14.0 15.7 99 0.1 ENE 20 28 11 15 1013.6 1010.5 0.0
01/01:28am 15.9 13.6 15.7 99 0.1 ENE 22 28 12 15 1013.6 1010.5 0.0
01/01:27am 15.9 13.6 15.7 99 0.1 ENE 22 28 12 15 1013.7 1010.6 0.0
01/01:08am 15.9 13.2 15.7 99 0.1 ENE 24 30 13 16 1013.9 1010.8 0.0
01/01:00am 16.0 13.4 15.8 99 0.1 ENE 24 32 13 17 1014.0 1011.0 0.0
01/12:58am 16.0 13.0 15.8 99 0.1 ENE 26 32 14 17 1014.0 1011.0 0.0
01/12:30am 16.2 13.2 15.9 98 0.2 ENE 26 32 14 17 1014.1 1011.1 0.0
01/12:00am 16.2 13.5 15.7 97 0.3 E 24 28 13 15 1014.4 1011.4 0.0
 
Date/Time
EST
Temp
°C
App
Temp
°C
Dew
Point
°C
Rel
Hum
%
Delta-T
°C
Wind Press
QNH
hPa
Press
MSL
hPa
Rain since
9am
mm
Dir  Spd
km/h
Gust
km/h
Spd
kts
Gust
kts
30/11:30pm 16.2 14.2 15.6 96 0.4 E 20 32 11 17 1014.5 1011.5 0.0
30/11:00pm 16.3 14.2 15.2 93 0.7 E 20 26 11 14 1014.7 1011.7 0.0
30/10:30pm 16.7 14.1 14.9 89 1.1 E 22 33 12 18 1014.6 1011.6 0.0
30/10:00pm 16.7 13.8 15.1 90 1.0 E 24 32 13 17 1014.8 1011.8 0.0
30/09:30pm 16.8 12.7 14.8 88 1.2 E 30 41 16 22 1015.0 1012.0 0.0
30/09:00pm 16.9 11.7 14.5 86 1.4 E 35 43 19 23 1015.0 1012.0 0.0
30/08:30pm 17.1 11.8 14.2 83 1.7 E 35 46 19 25 1015.3 1012.2 0.0
30/08:21pm 17.3 13.4 14.4 83 1.7 E 28 46 15 25 1015.0 1012.0 0.0
30/08:00pm 17.5 12.3 14.6 83 1.7 E 35 44 19 24 1014.9 1011.9 0.0
30/07:31pm 17.8 12.7 13.7 77 2.4 E 33 52 18 28 1014.6 1011.6 0.0
30/07:30pm 17.8 12.3 13.7 77 2.4 E 35 52 19 28 1014.6 1011.6 0.0
30/07:00pm 18.2 11.9 14.5 79 2.2 E 41 56 22 30 1013.9 1010.8 0.0
30/06:45pm 18.5 13.6 14.2 76 2.5 E 33 54 18 29 1013.7 1010.6 0.0
30/06:30pm 18.5 13.5 14.0 75 2.7 E 33 44 18 24 1013.4 1010.4 0.0
30/06:00pm 19.0 12.9 13.0 68 3.5 ESE 37 44 20 24 1013.0 1010.0 0.0
30/05:30pm 20.5 14.7 12.7 61 4.5 E 35 46 19 25 1012.6 1009.6 0.0
30/05:00pm 21.4 15.6 12.8 58 5.0 E 35 44 19 24 1012.3 1009.2 0.0
30/04:40pm 23.3 20.1 10.0 43 7.5 ESE 17 46 9 25 1011.8 1008.8 0.0
30/04:30pm 27.8 25.5 4.8 23 12.1 S 6 15 3 8 1011.6 1008.6 0.0
30/04:00pm 28.7 25.6 5.5 23 12.5 SSE 11 17 6 9 1011.4 1008.4 0.0
30/03:30pm 28.6 23.5 7.8 27 11.6 S 24 33 13 18 1011.6 1008.6 0.0
30/03:06pm 25.4 20.0 8.0 33 9.6 WSW 26 57 14 31 1011.6 1008.6 0.0
30/03:04pm 27.5 22.7 7.4 28 11.1 WSW 22 44 12 24 1011.6 1008.6 0.0
30/03:00pm 28.4 24.0 7.6 27 11.6 W 20 26 11 14 1011.4 1008.4 0.0
30/02:30pm 28.9 26.0 8.0 27 11.7 WSW 13 28 7 15 1011.2 1008.2 0.0
30/02:00pm 29.2 25.1 8.8 28 11.6 NNW 20 28 11 15 1011.1 1008.0 0.0
30/01:30pm 29.1 25.9 11.2 33 10.6 WNW 19 26 10 14 1012.2 1009.1 0.0
30/01:00pm 29.3 26.1 9.9 30 11.2 W 17 28 9 15 1012.9 1009.9 0.0
30/12:30pm 28.8 25.6 11.8 35 10.1 NW 20 30 11 16 1013.4 1010.4 0.0
30/12:00pm 27.9 26.3 13.8 42 8.6 NW 15 24 8 13 1013.9 1010.8 0.0
30/11:30am 27.1 24.5 12.0 39 8.9 WNW 17 26 9 14 1014.3 1011.3 0.0
30/11:00am 26.8 23.2 10.5 36 9.4 WNW 20 30 11 16 1014.6 1011.6 0.0
30/10:30am 26.7 23.7 10.8 37 9.2 NW 17 24 9 13 1014.8 1011.8 0.0

Other Formats:

Comma delimited format used in spreadsheet applications
http://www.bom.gov.au/fwo/IDQ60801/IDQ60801.95551.axf

JavaScript Object Notation format (JSON) in row-major order
http://www.bom.gov.au/fwo/IDQ60801/IDQ60801.95551.json